Terminal Aerodrome Forecast
Issued by NWS

Home | Current Version | Previous Version | Text Only | Print | Product List | Glossary On
Versions: 1 2 3 4 5 6 7 8 9 10 11 12
000
FTUS43 KILX 010500
TAFBMI
TAF
KBMI 010520Z 0106/0206 VRB03KT P6SM SCT080 BKN150
     FM010800 VRB03KT 6SM BR BKN080
     FM011400 21004KT P6SM BKN060
     FM011700 22004KT P6SM VCTS BKN050CB
     FM012200 VRB03KT P6SM SCT150=

USA.gov is the U.S. government's official web portal to all federal, state and local government web resources and services.